sensor_id;sensor_type;location;lat;lon;timestamp;P1;durP1;ratioP1;P2;durP2;ratioP2
18125;SDS011;53956;52.442;13.284;2023-05-10T00:00:53;9.70;;;7.10;;
18125;SDS011;53956;52.442;13.284;2023-05-10T00:03:20;9.07;;;6.93;;
18125;SDS011;53956;52.442;13.284;2023-05-10T00:05:47;11.33;;;6.90;;
18125;SDS011;53956;52.442;13.284;2023-05-10T00:08:13;9.73;;;7.13;;
18125;SDS011;53956;52.442;13.284;2023-05-10T00:10:40;9.93;;;7.27;;
18125;SDS011;53956;52.442;13.284;2023-05-10T00:13:08;12.13;;;6.90;;
18125;SDS011;53956;52.442;13.284;2023-05-10T00:15:35;9.13;;;7.27;;
18125;SDS011;53956;52.442;13.284;2023-05-10T00:18:02;10.97;;;7.10;;
18125;SDS011;53956;52.442;13.284;2023-05-10T00:20:28;14.17;;;7.63;;
18125;SDS011;53956;52.442;13.284;2023-05-10T00:22:55;10.90;;;7.40;;
18125;SDS011;53956;52.442;13.284;2023-05-10T00:25:21;9.23;;;7.60;;
18125;SDS011;53956;52.442;13.284;2023-05-10T00:27:48;10.57;;;7.20;;
18125;SDS011;53956;52.442;13.284;2023-05-10T00:30:16;11.30;;;7.63;;
18125;SDS011;53956;52.442;13.284;2023-05-10T00:32:43;9.63;;;7.60;;
18125;SDS011;53956;52.442;13.284;2023-05-10T00:35:10;11.10;;;7.50;;
18125;SDS011;53956;52.442;13.284;2023-05-10T00:37:37;10.53;;;7.83;;
18125;SDS011;53956;52.442;13.284;2023-05-10T00:40:04;10.97;;;7.50;;
18125;SDS011;53956;52.442;13.284;2023-05-10T00:42:32;9.73;;;7.50;;
18125;SDS011;53956;52.442;13.284;2023-05-10T00:44:58;10.67;;;7.40;;
18125;SDS011;53956;52.442;13.284;2023-05-10T00:47:27;9.47;;;7.33;;
18125;SDS011;53956;52.442;13.284;2023-05-10T00:49:55;10.97;;;7.23;;
18125;SDS011;53956;52.442;13.284;2023-05-10T00:52:22;9.77;;;7.80;;
18125;SDS011;53956;52.442;13.284;2023-05-10T00:54:49;9.93;;;7.17;;
18125;SDS011;53956;52.442;13.284;2023-05-10T00:57:17;8.47;;;6.80;;
18125;SDS011;53956;52.442;13.284;2023-05-10T00:59:44;10.60;;;7.20;;
18125;SDS011;53956;52.442;13.284;2023-05-10T01:02:12;11.40;;;7.40;;
18125;SDS011;53956;52.442;13.284;2023-05-10T01:04:40;12.37;;;7.63;;
18125;SDS011;53956;52.442;13.284;2023-05-10T01:07:07;11.00;;;8.67;;
18125;SDS011;53956;52.442;13.284;2023-05-10T01:09:34;9.53;;;7.73;;
18125;SDS011;53956;52.442;13.284;2023-05-10T01:12:00;10.67;;;7.80;;
18125;SDS011;53956;52.442;13.284;2023-05-10T01:14:28;10.23;;;7.93;;
18125;SDS011;53956;52.442;13.284;2023-05-10T01:16:56;9.43;;;7.83;;
18125;SDS011;53956;52.442;13.284;2023-05-10T01:19:24;10.97;;;7.70;;
18125;SDS011;53956;52.442;13.284;2023-05-10T01:21:56;10.27;;;7.73;;
18125;SDS011;53956;52.442;13.284;2023-05-10T01:27:40;10.53;;;8.47;;
18125;SDS011;53956;52.442;13.284;2023-05-10T01:30:35;10.83;;;7.77;;
18125;SDS011;53956;52.442;13.284;2023-05-10T01:33:19;9.83;;;7.97;;
18125;SDS011;53956;52.442;13.284;2023-05-10T01:35:51;10.40;;;8.20;;
18125;SDS011;53956;52.442;13.284;2023-05-10T01:38:29;10.43;;;7.90;;
18125;SDS011;53956;52.442;13.284;2023-05-10T01:41:05;10.37;;;8.40;;
18125;SDS011;53956;52.442;13.284;2023-05-10T01:43:41;10.37;;;8.60;;
18125;SDS011;53956;52.442;13.284;2023-05-10T01:46:14;9.57;;;7.97;;
18125;SDS011;53956;52.442;13.284;2023-05-10T01:48:48;16.80;;;8.10;;
18125;SDS011;53956;52.442;13.284;2023-05-10T01:51:21;9.73;;;8.00;;
18125;SDS011;53956;52.442;13.284;2023-05-10T01:53:50;9.40;;;7.80;;
18125;SDS011;53956;52.442;13.284;2023-05-10T01:56:24;9.57;;;7.97;;
18125;SDS011;53956;52.442;13.284;2023-05-10T01:58:53;13.30;;;8.50;;
18125;SDS011;53956;52.442;13.284;2023-05-10T02:01:22;10.83;;;8.30;;
18125;SDS011;53956;52.442;13.284;2023-05-10T02:03:52;9.80;;;7.93;;
18125;SDS011;53956;52.442;13.284;2023-05-10T02:06:22;10.13;;;7.57;;
18125;SDS011;53956;52.442;13.284;2023-05-10T02:08:51;13.27;;;8.13;;
18125;SDS011;53956;52.442;13.284;2023-05-10T02:11:18;12.90;;;8.70;;
18125;SDS011;53956;52.442;13.284;2023-05-10T02:13:47;11.63;;;9.00;;
18125;SDS011;53956;52.442;13.284;2023-05-10T02:16:15;12.07;;;8.10;;
18125;SDS011;53956;52.442;13.284;2023-05-10T02:18:44;10.17;;;8.50;;
18125;SDS011;53956;52.442;13.284;2023-05-10T02:21:14;9.80;;;8.27;;
18125;SDS011;53956;52.442;13.284;2023-05-10T02:23:43;9.97;;;8.50;;
18125;SDS011;53956;52.442;13.284;2023-05-10T02:26:11;12.20;;;8.40;;
18125;SDS011;53956;52.442;13.284;2023-05-10T02:28:39;9.73;;;8.73;;
18125;SDS011;53956;52.442;13.284;2023-05-10T02:31:07;11.87;;;8.83;;
18125;SDS011;53956;52.442;13.284;2023-05-10T02:33:37;13.57;;;8.80;;
18125;SDS011;53956;52.442;13.284;2023-05-10T02:36:06;11.83;;;8.43;;
18125;SDS011;53956;52.442;13.284;2023-05-10T02:38:36;12.80;;;8.40;;
18125;SDS011;53956;52.442;13.284;2023-05-10T02:41:04;10.57;;;8.40;;
18125;SDS011;53956;52.442;13.284;2023-05-10T02:43:33;12.23;;;8.67;;
18125;SDS011;53956;52.442;13.284;2023-05-10T02:46:01;11.53;;;9.03;;
18125;SDS011;53956;52.442;13.284;2023-05-10T02:48:28;13.20;;;9.17;;
18125;SDS011;53956;52.442;13.284;2023-05-10T02:50:56;12.27;;;9.00;;
18125;SDS011;53956;52.442;13.284;2023-05-10T02:53:31;13.07;;;9.00;;
18125;SDS011;53956;52.442;13.284;2023-05-10T02:56:01;13.47;;;8.80;;
18125;SDS011;53956;52.442;13.284;2023-05-10T02:58:34;12.57;;;8.93;;
18125;SDS011;53956;52.442;13.284;2023-05-10T03:01:00;10.87;;;8.23;;
18125;SDS011;53956;52.442;13.284;2023-05-10T03:03:27;9.83;;;8.33;;
18125;SDS011;53956;52.442;13.284;2023-05-10T03:05:54;12.77;;;9.33;;
18125;SDS011;53956;52.442;13.284;2023-05-10T03:08:22;12.37;;;8.60;;
18125;SDS011;53956;52.442;13.284;2023-05-10T03:10:53;12.43;;;8.50;;
18125;SDS011;53956;52.442;13.284;2023-05-10T03:13:31;11.10;;;8.80;;
18125;SDS011;53956;52.442;13.284;2023-05-10T03:16:05;11.73;;;8.50;;
18125;SDS011;53956;52.442;13.284;2023-05-10T03:18:37;11.47;;;8.77;;
18125;SDS011;53956;52.442;13.284;2023-05-10T03:21:10;10.27;;;8.50;;
18125;SDS011;53956;52.442;13.284;2023-05-10T03:23:41;12.47;;;8.73;;
18125;SDS011;53956;52.442;13.284;2023-05-10T03:26:09;11.00;;;8.67;;
18125;SDS011;53956;52.442;13.284;2023-05-10T03:28:41;12.03;;;9.00;;
18125;SDS011;53956;52.442;13.284;2023-05-10T03:31:08;11.73;;;8.80;;
18125;SDS011;53956;52.442;13.284;2023-05-10T03:33:36;16.23;;;8.70;;
18125;SDS011;53956;52.442;13.284;2023-05-10T03:36:12;13.20;;;8.20;;
18125;SDS011;53956;52.442;13.284;2023-05-10T03:38:39;11.97;;;7.87;;
18125;SDS011;53956;52.442;13.284;2023-05-10T03:41:05;11.83;;;8.77;;
18125;SDS011;53956;52.442;13.284;2023-05-10T03:43:32;11.77;;;8.30;;
18125;SDS011;53956;52.442;13.284;2023-05-10T03:46:00;11.90;;;8.77;;
18125;SDS011;53956;52.442;13.284;2023-05-10T03:48:27;11.23;;;8.53;;
18125;SDS011;53956;52.442;13.284;2023-05-10T03:50:54;11.27;;;8.47;;
18125;SDS011;53956;52.442;13.284;2023-05-10T03:53:21;10.23;;;8.40;;
18125;SDS011;53956;52.442;13.284;2023-05-10T03:55:47;10.97;;;8.33;;
18125;SDS011;53956;52.442;13.284;2023-05-10T03:58:14;9.50;;;7.93;;
18125;SDS011;53956;52.442;13.284;2023-05-10T04:00:41;12.33;;;8.70;;
18125;SDS011;53956;52.442;13.284;2023-05-10T04:03:12;11.87;;;8.27;;
18125;SDS011;53956;52.442;13.284;2023-05-10T04:05:39;11.87;;;8.23;;
18125;SDS011;53956;52.442;13.284;2023-05-10T04:08:06;10.47;;;8.33;;
18125;SDS011;53956;52.442;13.284;2023-05-10T04:10:33;10.70;;;8.23;;
18125;SDS011;53956;52.442;13.284;2023-05-10T04:13:00;10.57;;;7.80;;
18125;SDS011;53956;52.442;13.284;2023-05-10T04:15:27;10.67;;;7.60;;
18125;SDS011;53956;52.442;13.284;2023-05-10T04:17:53;11.13;;;8.00;;
18125;SDS011;53956;52.442;13.284;2023-05-10T04:20:21;10.73;;;7.87;;
18125;SDS011;53956;52.442;13.284;2023-05-10T04:22:48;10.37;;;7.47;;
18125;SDS011;53956;52.442;13.284;2023-05-10T04:25:15;10.97;;;7.97;;
18125;SDS011;53956;52.442;13.284;2023-05-10T04:27:42;9.17;;;7.37;;
18125;SDS011;53956;52.442;13.284;2023-05-10T04:30:08;10.13;;;7.90;;
18125;SDS011;53956;52.442;13.284;2023-05-10T04:32:36;10.63;;;7.27;;
18125;SDS011;53956;52.442;13.284;2023-05-10T04:35:03;9.70;;;7.30;;
18125;SDS011;53956;52.442;13.284;2023-05-10T04:37:31;10.03;;;7.70;;
18125;SDS011;53956;52.442;13.284;2023-05-10T04:39:57;12.10;;;7.23;;
18125;SDS011;53956;52.442;13.284;2023-05-10T04:42:25;9.13;;;7.27;;
18125;SDS011;53956;52.442;13.284;2023-05-10T04:44:52;8.93;;;7.17;;
18125;SDS011;53956;52.442;13.284;2023-05-10T04:47:19;8.50;;;7.10;;
18125;SDS011;53956;52.442;13.284;2023-05-10T04:49:45;11.67;;;7.30;;
18125;SDS011;53956;52.442;13.284;2023-05-10T04:52:12;9.93;;;6.93;;
18125;SDS011;53956;52.442;13.284;2023-05-10T04:54:41;8.43;;;6.80;;
18125;SDS011;53956;52.442;13.284;2023-05-10T04:57:08;11.83;;;6.80;;
18125;SDS011;53956;52.442;13.284;2023-05-10T04:59:35;8.63;;;6.70;;
18125;SDS011;53956;52.442;13.284;2023-05-10T05:02:02;10.40;;;6.45;;
18125;SDS011;53956;52.442;13.284;2023-05-10T05:04:29;10.33;;;6.27;;
18125;SDS011;53956;52.442;13.284;2023-05-10T05:06:56;10.10;;;6.00;;
18125;SDS011;53956;52.442;13.284;2023-05-10T05:09:22;10.35;;;6.15;;
18125;SDS011;53956;52.442;13.284;2023-05-10T05:11:50;11.32;;;6.55;;
18125;SDS011;53956;52.442;13.284;2023-05-10T05:14:17;8.80;;;6.25;;
18125;SDS011;53956;52.442;13.284;2023-05-10T05:16:45;10.90;;;5.70;;
18125;SDS011;53956;52.442;13.284;2023-05-10T05:19:12;7.95;;;5.68;;
18125;SDS011;53956;52.442;13.284;2023-05-10T05:21:39;10.95;;;5.88;;
18125;SDS011;53956;52.442;13.284;2023-05-10T05:24:06;11.02;;;5.53;;
18125;SDS011;53956;52.442;13.284;2023-05-10T05:26:33;7.90;;;5.35;;
18125;SDS011;53956;52.442;13.284;2023-05-10T05:29:00;8.95;;;5.22;;
18125;SDS011;53956;52.442;13.284;2023-05-10T05:31:27;7.00;;;4.57;;
18125;SDS011;53956;52.442;13.284;2023-05-10T05:33:54;8.18;;;4.43;;
18125;SDS011;53956;52.442;13.284;2023-05-10T05:36:21;8.35;;;4.80;;
18125;SDS011;53956;52.442;13.284;2023-05-10T05:38:48;10.55;;;4.40;;
18125;SDS011;53956;52.442;13.284;2023-05-10T05:41:14;8.82;;;4.05;;
18125;SDS011;53956;52.442;13.284;2023-05-10T05:43:41;6.40;;;4.28;;
18125;SDS011;53956;52.442;13.284;2023-05-10T05:46:09;8.43;;;3.97;;
18125;SDS011;53956;52.442;13.284;2023-05-10T05:48:36;5.75;;;3.80;;
18125;SDS011;53956;52.442;13.284;2023-05-10T05:51:02;8.13;;;3.97;;
18125;SDS011;53956;52.442;13.284;2023-05-10T05:53:29;6.97;;;3.85;;
18125;SDS011;53956;52.442;13.284;2023-05-10T05:55:56;7.68;;;3.85;;
18125;SDS011;53956;52.442;13.284;2023-05-10T05:58:24;6.93;;;3.85;;
18125;SDS011;53956;52.442;13.284;2023-05-10T06:00:51;5.85;;;4.00;;
18125;SDS011;53956;52.442;13.284;2023-05-10T06:03:19;9.07;;;3.70;;
18125;SDS011;53956;52.442;13.284;2023-05-10T06:05:47;8.43;;;3.70;;
18125;SDS011;53956;52.442;13.284;2023-05-10T06:08:13;8.60;;;3.70;;
18125;SDS011;53956;52.442;13.284;2023-05-10T06:10:40;15.95;;;3.78;;
18125;SDS011;53956;52.442;13.284;2023-05-10T06:13:07;10.35;;;3.30;;
18125;SDS011;53956;52.442;13.284;2023-05-10T06:15:33;4.88;;;3.40;;
18125;SDS011;53956;52.442;13.284;2023-05-10T06:18:00;5.88;;;3.40;;
18125;SDS011;53956;52.442;13.284;2023-05-10T06:20:28;4.68;;;3.38;;
18125;SDS011;53956;52.442;13.284;2023-05-10T06:22:56;5.65;;;3.30;;
18125;SDS011;53956;52.442;13.284;2023-05-10T06:25:23;5.97;;;3.35;;
18125;SDS011;53956;52.442;13.284;2023-05-10T06:27:49;6.55;;;3.33;;
18125;SDS011;53956;52.442;13.284;2023-05-10T06:30:20;5.57;;;3.25;;
18125;SDS011;53956;52.442;13.284;2023-05-10T06:32:48;6.65;;;3.58;;
18125;SDS011;53956;52.442;13.284;2023-05-10T06:35:14;6.13;;;3.25;;
18125;SDS011;53956;52.442;13.284;2023-05-10T06:37:42;6.47;;;3.20;;
18125;SDS011;53956;52.442;13.284;2023-05-10T06:40:09;7.05;;;3.08;;
18125;SDS011;53956;52.442;13.284;2023-05-10T06:42:36;5.82;;;3.17;;
18125;SDS011;53956;52.442;13.284;2023-05-10T06:45:03;5.47;;;3.30;;
18125;SDS011;53956;52.442;13.284;2023-05-10T06:47:31;5.32;;;2.92;;
18125;SDS011;53956;52.442;13.284;2023-05-10T06:49:57;6.93;;;3.70;;
18125;SDS011;53956;52.442;13.284;2023-05-10T06:52:24;4.75;;;3.33;;
18125;SDS011;53956;52.442;13.284;2023-05-10T06:54:52;6.47;;;4.00;;
18125;SDS011;53956;52.442;13.284;2023-05-10T06:57:19;5.05;;;3.60;;
18125;SDS011;53956;52.442;13.284;2023-05-10T06:59:46;6.15;;;3.63;;
18125;SDS011;53956;52.442;13.284;2023-05-10T07:02:13;6.47;;;3.50;;
18125;SDS011;53956;52.442;13.284;2023-05-10T07:04:40;7.03;;;3.80;;
18125;SDS011;53956;52.442;13.284;2023-05-10T07:07:07;6.25;;;3.60;;
18125;SDS011;53956;52.442;13.284;2023-05-10T07:09:34;8.05;;;3.40;;
18125;SDS011;53956;52.442;13.284;2023-05-10T07:12:02;6.80;;;3.78;;
18125;SDS011;53956;52.442;13.284;2023-05-10T07:14:29;6.32;;;3.75;;
18125;SDS011;53956;52.442;13.284;2023-05-10T07:16:56;8.80;;;3.60;;
18125;SDS011;53956;52.442;13.284;2023-05-10T07:19:22;6.75;;;3.40;;
18125;SDS011;53956;52.442;13.284;2023-05-10T07:21:50;6.13;;;3.45;;
18125;SDS011;53956;52.442;13.284;2023-05-10T07:24:16;5.97;;;3.10;;
18125;SDS011;53956;52.442;13.284;2023-05-10T07:26:43;7.50;;;3.20;;
18125;SDS011;53956;52.442;13.284;2023-05-10T07:29:11;6.00;;;3.38;;
18125;SDS011;53956;52.442;13.284;2023-05-10T07:31:38;6.47;;;3.42;;
18125;SDS011;53956;52.442;13.284;2023-05-10T07:34:06;5.65;;;3.20;;
18125;SDS011;53956;52.442;13.284;2023-05-10T07:36:33;5.47;;;3.50;;
18125;SDS011;53956;52.442;13.284;2023-05-10T07:39:00;6.93;;;3.25;;
18125;SDS011;53956;52.442;13.284;2023-05-10T07:41:27;8.75;;;3.53;;
18125;SDS011;53956;52.442;13.284;2023-05-10T07:43:54;8.02;;;3.50;;
18125;SDS011;53956;52.442;13.284;2023-05-10T07:46:22;4.35;;;3.35;;
18125;SDS011;53956;52.442;13.284;2023-05-10T07:48:49;6.93;;;3.78;;
18125;SDS011;53956;52.442;13.284;2023-05-10T07:51:15;6.38;;;3.60;;
18125;SDS011;53956;52.442;13.284;2023-05-10T07:53:42;5.72;;;3.60;;
18125;SDS011;53956;52.442;13.284;2023-05-10T07:56:22;6.55;;;3.35;;
18125;SDS011;53956;52.442;13.284;2023-05-10T07:58:51;5.22;;;3.60;;
18125;SDS011;53956;52.442;13.284;2023-05-10T08:01:18;5.50;;;3.20;;
18125;SDS011;53956;52.442;13.284;2023-05-10T08:03:46;5.63;;;3.65;;
18125;SDS011;53956;52.442;13.284;2023-05-10T08:06:13;9.63;;;3.70;;
18125;SDS011;53956;52.442;13.284;2023-05-10T08:08:40;7.03;;;3.67;;
18125;SDS011;53956;52.442;13.284;2023-05-10T08:11:07;7.32;;;3.67;;
18125;SDS011;53956;52.442;13.284;2023-05-10T08:13:34;6.53;;;3.40;;
18125;SDS011;53956;52.442;13.284;2023-05-10T08:16:01;8.40;;;3.55;;
18125;SDS011;53956;52.442;13.284;2023-05-10T08:18:28;8.55;;;3.58;;
18125;SDS011;53956;52.442;13.284;2023-05-10T08:20:56;5.15;;;3.40;;
18125;SDS011;53956;52.442;13.284;2023-05-10T08:23:22;5.60;;;3.25;;
18125;SDS011;53956;52.442;13.284;2023-05-10T08:25:49;7.05;;;3.70;;
18125;SDS011;53956;52.442;13.284;2023-05-10T08:28:16;6.28;;;3.45;;
18125;SDS011;53956;52.442;13.284;2023-05-10T08:30:42;4.75;;;3.47;;
18125;SDS011;53956;52.442;13.284;2023-05-10T08:33:09;7.50;;;3.60;;
18125;SDS011;53956;52.442;13.284;2023-05-10T08:35:35;4.45;;;2.92;;
18125;SDS011;53956;52.442;13.284;2023-05-10T08:38:03;6.13;;;3.50;;
18125;SDS011;53956;52.442;13.284;2023-05-10T08:40:30;6.43;;;3.45;;
18125;SDS011;53956;52.442;13.284;2023-05-10T08:42:58;9.05;;;3.55;;
18125;SDS011;53956;52.442;13.284;2023-05-10T08:45:32;5.65;;;3.53;;
18125;SDS011;53956;52.442;13.284;2023-05-10T08:47:59;7.28;;;3.55;;
18125;SDS011;53956;52.442;13.284;2023-05-10T08:50:28;5.13;;;3.25;;
18125;SDS011;53956;52.442;13.284;2023-05-10T08:52:57;4.38;;;3.50;;
18125;SDS011;53956;52.442;13.284;2023-05-10T08:55:28;7.55;;;3.30;;
18125;SDS011;53956;52.442;13.284;2023-05-10T08:57:55;7.30;;;3.15;;
18125;SDS011;53956;52.442;13.284;2023-05-10T09:00:22;4.85;;;3.67;;
18125;SDS011;53956;52.442;13.284;2023-05-10T09:02:49;5.85;;;3.47;;
18125;SDS011;53956;52.442;13.284;2023-05-10T09:05:16;7.28;;;3.58;;
18125;SDS011;53956;52.442;13.284;2023-05-10T09:07:43;5.93;;;3.20;;
18125;SDS011;53956;52.442;13.284;2023-05-10T09:10:10;6.00;;;3.47;;
18125;SDS011;53956;52.442;13.284;2023-05-10T09:12:38;3.88;;;3.22;;
18125;SDS011;53956;52.442;13.284;2023-05-10T09:15:06;6.22;;;3.47;;
18125;SDS011;53956;52.442;13.284;2023-05-10T09:17:35;5.80;;;3.78;;
18125;SDS011;53956;52.442;13.284;2023-05-10T09:20:03;8.68;;;3.92;;
18125;SDS011;53956;52.442;13.284;2023-05-10T09:22:31;5.88;;;3.35;;
18125;SDS011;53956;52.442;13.284;2023-05-10T09:25:05;5.45;;;3.28;;
18125;SDS011;53956;52.442;13.284;2023-05-10T09:27:32;7.88;;;3.83;;
18125;SDS011;53956;52.442;13.284;2023-05-10T09:30:00;4.32;;;3.22;;
18125;SDS011;53956;52.442;13.284;2023-05-10T09:32:35;4.20;;;3.47;;
18125;SDS011;53956;52.442;13.284;2023-05-10T09:35:06;7.50;;;3.28;;
18125;SDS011;53956;52.442;13.284;2023-05-10T09:37:34;6.45;;;3.20;;
18125;SDS011;53956;52.442;13.284;2023-05-10T09:40:00;7.13;;;3.30;;
18125;SDS011;53956;52.442;13.284;2023-05-10T09:42:31;5.97;;;3.38;;
18125;SDS011;53956;52.442;13.284;2023-05-10T09:45:01;5.43;;;3.40;;
18125;SDS011;53956;52.442;13.284;2023-05-10T09:47:28;7.13;;;3.72;;
18125;SDS011;53956;52.442;13.284;2023-05-10T09:49:57;6.45;;;3.85;;
18125;SDS011;53956;52.442;13.284;2023-05-10T09:52:28;6.15;;;3.58;;
18125;SDS011;53956;52.442;13.284;2023-05-10T09:54:55;6.53;;;3.40;;
18125;SDS011;53956;52.442;13.284;2023-05-10T09:57:22;6.03;;;3.58;;
18125;SDS011;53956;52.442;13.284;2023-05-10T09:59:50;7.40;;;3.75;;
18125;SDS011;53956;52.442;13.284;2023-05-10T10:02:20;6.00;;;3.45;;
18125;SDS011;53956;52.442;13.284;2023-05-10T10:04:53;7.28;;;3.13;;
18125;SDS011;53956;52.442;13.284;2023-05-10T10:07:22;8.52;;;3.63;;
18125;SDS011;53956;52.442;13.284;2023-05-10T10:09:50;5.10;;;3.25;;
18125;SDS011;53956;52.442;13.284;2023-05-10T10:12:17;4.35;;;3.40;;
18125;SDS011;53956;52.442;13.284;2023-05-10T10:14:45;6.43;;;3.50;;
18125;SDS011;53956;52.442;13.284;2023-05-10T10:17:12;6.15;;;3.50;;
18125;SDS011;53956;52.442;13.284;2023-05-10T10:19:40;4.53;;;3.60;;
18125;SDS011;53956;52.442;13.284;2023-05-10T10:22:07;7.60;;;3.60;;
18125;SDS011;53956;52.442;13.284;2023-05-10T10:24:36;5.90;;;3.38;;
18125;SDS011;53956;52.442;13.284;2023-05-10T10:27:05;5.68;;;3.83;;
18125;SDS011;53956;52.442;13.284;2023-05-10T10:29:42;5.40;;;3.35;;
18125;SDS011;53956;52.442;13.284;2023-05-10T10:32:19;8.68;;;3.60;;
18125;SDS011;53956;52.442;13.284;2023-05-10T10:34:51;5.60;;;3.35;;
18125;SDS011;53956;52.442;13.284;2023-05-10T10:37:20;10.85;;;3.92;;
18125;SDS011;53956;52.442;13.284;2023-05-10T10:39:47;7.10;;;3.28;;
18125;SDS011;53956;52.442;13.284;2023-05-10T10:42:14;9.07;;;3.55;;
18125;SDS011;53956;52.442;13.284;2023-05-10T10:45:11;4.78;;;3.50;;
18125;SDS011;53956;52.442;13.284;2023-05-10T10:47:38;6.35;;;3.38;;
18125;SDS011;53956;52.442;13.284;2023-05-10T10:50:07;7.55;;;3.00;;
18125;SDS011;53956;52.442;13.284;2023-05-10T10:52:34;5.00;;;3.00;;
18125;SDS011;53956;52.442;13.284;2023-05-10T10:55:03;6.20;;;3.33;;
18125;SDS011;53956;52.442;13.284;2023-05-10T10:57:31;4.55;;;3.15;;
18125;SDS011;53956;52.442;13.284;2023-05-10T11:02:49;6.10;;;2.90;;
18125;SDS011;53956;52.442;13.284;2023-05-10T11:05:24;8.10;;;3.33;;
18125;SDS011;53956;52.442;13.284;2023-05-10T11:07:52;7.05;;;3.10;;
18125;SDS011;53956;52.442;13.284;2023-05-10T11:10:20;5.00;;;3.17;;
18125;SDS011;53956;52.442;13.284;2023-05-10T11:12:53;6.40;;;3.50;;
18125;SDS011;53956;52.442;13.284;2023-05-10T11:15:29;7.70;;;3.35;;
18125;SDS011;53956;52.442;13.284;2023-05-10T11:17:57;5.13;;;3.13;;
18125;SDS011;53956;52.442;13.284;2023-05-10T11:20:28;8.60;;;3.20;;
18125;SDS011;53956;52.442;13.284;2023-05-10T11:23:11;8.85;;;3.20;;
18125;SDS011;53956;52.442;13.284;2023-05-10T11:25:41;3.78;;;3.28;;
18125;SDS011;53956;52.442;13.284;2023-05-10T11:28:09;4.50;;;3.00;;
18125;SDS011;53956;52.442;13.284;2023-05-10T11:30:36;14.20;;;3.65;;
18125;SDS011;53956;52.442;13.284;2023-05-10T11:33:04;4.63;;;2.97;;
18125;SDS011;53956;52.442;13.284;2023-05-10T11:35:32;6.03;;;2.88;;
18125;SDS011;53956;52.442;13.284;2023-05-10T11:38:04;6.50;;;3.03;;
18125;SDS011;53956;52.442;13.284;2023-05-10T11:40:32;4.85;;;3.20;;
18125;SDS011;53956;52.442;13.284;2023-05-10T11:42:59;4.05;;;2.90;;
18125;SDS011;53956;52.442;13.284;2023-05-10T11:45:25;3.60;;;2.80;;
18125;SDS011;53956;52.442;13.284;2023-05-10T11:47:53;8.95;;;3.22;;
18125;SDS011;53956;52.442;13.284;2023-05-10T11:50:20;10.23;;;2.80;;
18125;SDS011;53956;52.442;13.284;2023-05-10T11:52:51;6.55;;;3.03;;
18125;SDS011;53956;52.442;13.284;2023-05-10T11:55:18;4.75;;;2.95;;
18125;SDS011;53956;52.442;13.284;2023-05-10T11:57:44;4.53;;;2.90;;
18125;SDS011;53956;52.442;13.284;2023-05-10T12:00:11;4.43;;;3.10;;
18125;SDS011;53956;52.442;13.284;2023-05-10T12:02:40;5.95;;;3.08;;
18125;SDS011;53956;52.442;13.284;2023-05-10T12:05:08;4.53;;;2.92;;
18125;SDS011;53956;52.442;13.284;2023-05-10T12:07:35;4.30;;;2.72;;
18125;SDS011;53956;52.442;13.284;2023-05-10T12:10:04;6.45;;;2.97;;
18125;SDS011;53956;52.442;13.284;2023-05-10T12:12:36;7.47;;;2.90;;
18125;SDS011;53956;52.442;13.284;2023-05-10T12:15:04;11.77;;;3.15;;
18125;SDS011;53956;52.442;13.284;2023-05-10T12:17:32;7.30;;;2.70;;
18125;SDS011;53956;52.442;13.284;2023-05-10T12:20:12;4.00;;;2.53;;
18125;SDS011;53956;52.442;13.284;2023-05-10T12:22:39;4.75;;;3.03;;
18125;SDS011;53956;52.442;13.284;2023-05-10T12:25:08;6.10;;;2.72;;
18125;SDS011;53956;52.442;13.284;2023-05-10T12:27:36;9.52;;;3.20;;
18125;SDS011;53956;52.442;13.284;2023-05-10T12:30:03;6.20;;;3.10;;
18125;SDS011;53956;52.442;13.284;2023-05-10T12:32:39;4.60;;;2.90;;
18125;SDS011;53956;52.442;13.284;2023-05-10T12:35:07;3.88;;;2.53;;
18125;SDS011;53956;52.442;13.284;2023-05-10T12:37:34;6.78;;;2.95;;
18125;SDS011;53956;52.442;13.284;2023-05-10T12:40:05;9.52;;;2.92;;
18125;SDS011;53956;52.442;13.284;2023-05-10T12:42:34;5.22;;;2.90;;
18125;SDS011;53956;52.442;13.284;2023-05-10T12:45:01;5.32;;;2.90;;
18125;SDS011;53956;52.442;13.284;2023-05-10T12:47:28;3.55;;;2.70;;
18125;SDS011;53956;52.442;13.284;2023-05-10T12:49:55;4.82;;;3.42;;
18125;SDS011;53956;52.442;13.284;2023-05-10T12:52:22;4.93;;;3.05;;
18125;SDS011;53956;52.442;13.284;2023-05-10T12:54:48;4.88;;;3.30;;
18125;SDS011;53956;52.442;13.284;2023-05-10T12:57:16;4.88;;;3.08;;
18125;SDS011;53956;52.442;13.284;2023-05-10T12:59:43;7.53;;;3.47;;
18125;SDS011;53956;52.442;13.284;2023-05-10T13:02:10;6.35;;;3.13;;
18125;SDS011;53956;52.442;13.284;2023-05-10T13:04:36;5.13;;;2.70;;
18125;SDS011;53956;52.442;13.284;2023-05-10T13:07:04;5.10;;;2.90;;
18125;SDS011;53956;52.442;13.284;2023-05-10T13:09:31;6.65;;;3.28;;
18125;SDS011;53956;52.442;13.284;2023-05-10T13:11:58;9.27;;;3.35;;
18125;SDS011;53956;52.442;13.284;2023-05-10T13:14:26;6.78;;;3.30;;
18125;SDS011;53956;52.442;13.284;2023-05-10T13:16:53;6.15;;;3.20;;
18125;SDS011;53956;52.442;13.284;2023-05-10T13:19:19;6.88;;;3.17;;
18125;SDS011;53956;52.442;13.284;2023-05-10T13:21:46;6.25;;;3.35;;
18125;SDS011;53956;52.442;13.284;2023-05-10T13:24:13;5.28;;;2.92;;
18125;SDS011;53956;52.442;13.284;2023-05-10T13:26:40;4.70;;;2.92;;
18125;SDS011;53956;52.442;13.284;2023-05-10T13:29:06;6.47;;;2.97;;
18125;SDS011;53956;52.442;13.284;2023-05-10T13:31:35;6.18;;;3.30;;
18125;SDS011;53956;52.442;13.284;2023-05-10T13:34:01;7.47;;;3.38;;
18125;SDS011;53956;52.442;13.284;2023-05-10T13:36:28;4.90;;;3.30;;
18125;SDS011;53956;52.442;13.284;2023-05-10T13:38:55;5.75;;;3.25;;
18125;SDS011;53956;52.442;13.284;2023-05-10T13:41:22;7.07;;;3.05;;
18125;SDS011;53956;52.442;13.284;2023-05-10T13:43:48;4.85;;;3.00;;
18125;SDS011;53956;52.442;13.284;2023-05-10T13:46:15;4.22;;;3.00;;
18125;SDS011;53956;52.442;13.284;2023-05-10T13:48:43;4.70;;;3.05;;
18125;SDS011;53956;52.442;13.284;2023-05-10T13:51:09;6.28;;;3.25;;
18125;SDS011;53956;52.442;13.284;2023-05-10T13:53:36;4.40;;;3.00;;
18125;SDS011;53956;52.442;13.284;2023-05-10T13:56:03;4.70;;;3.00;;
18125;SDS011;53956;52.442;13.284;2023-05-10T13:58:30;5.90;;;3.03;;
18125;SDS011;53956;52.442;13.284;2023-05-10T14:00:57;5.85;;;3.20;;
18125;SDS011;53956;52.442;13.284;2023-05-10T14:03:23;5.15;;;3.20;;
18125;SDS011;53956;52.442;13.284;2023-05-10T14:05:52;6.25;;;3.33;;
18125;SDS011;53956;52.442;13.284;2023-05-10T14:08:18;5.88;;;3.20;;
18125;SDS011;53956;52.442;13.284;2023-05-10T14:10:45;4.85;;;2.90;;
18125;SDS011;53956;52.442;13.284;2023-05-10T14:13:13;3.45;;;2.67;;
18125;SDS011;53956;52.442;13.284;2023-05-10T14:15:40;5.00;;;3.42;;
18125;SDS011;53956;52.442;13.284;2023-05-10T14:18:06;8.95;;;2.90;;
18125;SDS011;53956;52.442;13.284;2023-05-10T14:20:33;4.38;;;3.00;;
18125;SDS011;53956;52.442;13.284;2023-05-10T14:23:01;5.45;;;3.30;;
18125;SDS011;53956;52.442;13.284;2023-05-10T14:25:28;3.75;;;3.10;;
18125;SDS011;53956;52.442;13.284;2023-05-10T14:27:55;7.35;;;3.22;;
18125;SDS011;53956;52.442;13.284;2023-05-10T14:30:21;4.45;;;3.13;;
18125;SDS011;53956;52.442;13.284;2023-05-10T14:32:48;5.28;;;2.97;;
18125;SDS011;53956;52.442;13.284;2023-05-10T14:35:15;3.22;;;2.88;;
18125;SDS011;53956;52.442;13.284;2023-05-10T14:37:41;4.40;;;3.53;;
18125;SDS011;53956;52.442;13.284;2023-05-10T14:40:10;4.95;;;3.33;;
18125;SDS011;53956;52.442;13.284;2023-05-10T14:42:37;6.22;;;3.63;;